Time;durP1;ratioP1;P1;durP2;ratioP2;P2;SDS_P1;SDS_P2;PMS_P1;PMS_P2;Temp;Humidity;BMP_temperature;BMP_pressure;BME280_temperature;BME280_humidity;BME280_pressure;Samples;Min_cycle;Max_cycle;Signal;HPM_P1;HPM_P2
2022/01/20 00:00:49;;;;;;;29.38;11.40;;;;;;;;;;6182202;28;20134;-63
2022/01/20 00:03:51;;;;;;;29.83;11.85;;;;;;;;;;6179838;28;20051;-64
2022/01/20 00:23:43;;;;;;;38.58;13.48;;;;;;;;;;6181163;28;20054;-60
2022/01/20 00:26:49;;;;;;;29.95;12.88;;;;;;;;;;6182864;28;20517;-60
2022/01/20 00:30:16;;;;;;;32.83;12.18;;;;;;;;;;6182473;28;20449;-63
2022/01/20 00:39:12;;;;;;;30.58;13.02;;;;;;;;;;6179877;28;20100;-64
2022/01/20 00:42:13;;;;;;;31.15;12.32;;;;;;;;;;6180926;28;20100;-63
2022/01/20 00:45:15;;;;;;;31.20;11.98;;;;;;;;;;6184253;28;20051;-64
2022/01/20 00:48:15;;;;;;;31.63;12.32;;;;;;;;;;6184060;28;20049;-61
2022/01/20 00:51:16;;;;;;;27.73;12.57;;;;;;;;;;6181956;28;20133;-59
2022/01/20 00:54:17;;;;;;;29.10;11.75;;;;;;;;;;6190809;28;20462;-60
2022/01/20 00:57:17;;;;;;;25.27;11.05;;;;;;;;;;6194185;28;20585;-61
2022/01/20 01:00:18;;;;;;;27.05;12.20;;;;;;;;;;6195437;28;20046;-64
2022/01/20 01:03:19;;;;;;;29.63;11.75;;;;;;;;;;6192916;28;20096;-64
2022/01/20 01:09:40;;;;;;;25.80;10.60;;;;;;;;;;6187554;28;20059;-60
2022/01/20 01:12:52;;;;;;;26.40;11.45;;;;;;;;;;6187373;28;20760;-64
2022/01/20 01:15:53;;;;;;;;;;;;;;;;;;6181784;28;20527;-59
2022/01/20 01:22:21;;;;;;;25.70;11.05;;;;;;;;;;6176645;28;20054;-64
2022/01/20 01:25:22;;;;;;;31.50;12.05;;;;;;;;;;6180380;28;20551;-64
2022/01/20 01:28:26;;;;;;;31.45;11.10;;;;;;;;;;6178699;28;20145;-60
2022/01/20 01:31:44;;;;;;;24.90;10.70;;;;;;;;;;6180865;28;20058;-64
2022/01/20 01:34:49;;;;;;;24.55;11.45;;;;;;;;;;6182416;28;20073;-60
2022/01/20 01:41:11;;;;;;;26.83;11.20;;;;;;;;;;6182430;28;20057;-60
2022/01/20 01:44:20;;;;;;;29.60;11.05;;;;;;;;;;6182305;28;20500;-63
2022/01/20 01:47:20;;;;;;;23.55;10.40;;;;;;;;;;6180807;28;20077;-60
2022/01/20 01:50:22;;;;;;;26.77;10.82;;;;;;;;;;6180416;28;20146;-65
2022/01/20 01:53:23;;;;;;;24.98;11.13;;;;;;;;;;6179856;28;20089;-58
2022/01/20 01:56:24;;;;;;;25.70;10.90;;;;;;;;;;6178955;28;20046;-58
2022/01/20 01:59:24;;;;;;;21.52;9.65;;;;;;;;;;6178676;28;20058;-59
2022/01/20 02:02:27;;;;;;;23.35;10.32;;;;;;;;;;6180283;28;20050;-61
2022/01/20 02:05:28;;;;;;;26.15;9.68;;;;;;;;;;6179771;28;20074;-65
2022/01/20 02:21:44;;;;;;;24.02;8.70;;;;;;;;;;6176604;28;20121;-62
2022/01/20 02:24:44;;;;;;;23.42;9.07;;;;;;;;;;6178420;28;20062;-63
2022/01/20 02:27:45;;;;;;;24.65;9.20;;;;;;;;;;6179438;28;20075;-62
2022/01/20 02:30:46;;;;;;;21.60;9.82;;;;;;;;;;6181667;28;20046;-60
2022/01/20 02:33:46;;;;;;;21.80;9.35;;;;;;;;;;6178493;28;20078;-60
2022/01/20 02:36:48;;;;;;;22.15;9.10;;;;;;;;;;6181030;28;20559;-59
2022/01/20 02:46:20;;;;;;;20.42;10.20;;;;;;;;;;6179519;28;20473;-64
2022/01/20 02:49:21;;;;;;;24.40;10.18;;;;;;;;;;6180745;28;20141;-59
2022/01/20 02:52:23;;;;;;;20.98;10.27;;;;;;;;;;6178555;28;20043;-63
2022/01/20 02:55:24;;;;;;;22.48;9.32;;;;;;;;;;6178579;28;20445;-62
2022/01/20 02:58:25;;;;;;;24.65;9.93;;;;;;;;;;6179668;28;20051;-61
2022/01/20 03:01:25;;;;;;;22.20;9.38;;;;;;;;;;6178947;28;20050;-58
2022/01/20 03:04:27;;;;;;;22.67;9.13;;;;;;;;;;6177816;28;20046;-63
2022/01/20 03:07:27;;;;;;;22.55;10.45;;;;;;;;;;6177309;28;20101;-60
2022/01/20 03:10:29;;;;;;;25.33;9.88;;;;;;;;;;6182775;28;20429;-60
2022/01/20 03:13:30;;;;;;;19.75;8.75;;;;;;;;;;6182678;28;20121;-62
2022/01/20 03:16:31;;;;;;;21.88;9.43;;;;;;;;;;6184938;28;20046;-60
2022/01/20 03:19:31;;;;;;;20.48;9.60;;;;;;;;;;6185687;28;20544;-63
2022/01/20 03:22:32;;;;;;;23.10;9.20;;;;;;;;;;6181729;28;20417;-63
2022/01/20 03:25:32;;;;;;;22.23;9.55;;;;;;;;;;6184606;28;20113;-63
2022/01/20 03:28:33;;;;;;;26.25;9.93;;;;;;;;;;6185146;28;20046;-60
2022/01/20 03:31:34;;;;;;;23.35;10.02;;;;;;;;;;6183250;28;20050;-59
2022/01/20 03:34:35;;;;;;;23.13;10.05;;;;;;;;;;6179841;28;20050;-63
2022/01/20 03:37:35;;;;;;;26.77;9.50;;;;;;;;;;6186146;28;20113;-63
2022/01/20 03:40:36;;;;;;;29.13;10.25;;;;;;;;;;6182283;28;20078;-60
2022/01/20 03:43:37;;;;;;;27.27;10.27;;;;;;;;;;6182378;28;20042;-63
2022/01/20 03:46:38;;;;;;;24.98;10.20;;;;;;;;;;6187934;28;20085;-60
2022/01/20 03:52:59;;;;;;;27.65;10.35;;;;;;;;;;6178065;28;20043;-62
2022/01/20 03:56:00;;;;;;;31.35;10.98;;;;;;;;;;6183181;28;20172;-62
2022/01/20 03:59:01;;;;;;;27.58;10.60;;;;;;;;;;6185736;28;20193;-59
2022/01/20 04:02:02;;;;;;;26.60;11.48;;;;;;;;;;6180309;28;20035;-64
2022/01/20 04:05:03;;;;;;;28.52;11.60;;;;;;;;;;6182305;28;20456;-60
2022/01/20 04:08:06;;;;;;;26.48;10.55;;;;;;;;;;6182910;28;20040;-60
2022/01/20 04:11:09;;;;;;;30.38;11.75;;;;;;;;;;6183038;28;20093;-61
2022/01/20 04:14:12;;;;;;;26.05;10.90;;;;;;;;;;6182705;28;20042;-64
2022/01/20 04:17:18;;;;;;;29.63;11.15;;;;;;;;;;6184477;28;20125;-63
2022/01/20 04:20:19;;;;;;;24.58;11.15;;;;;;;;;;6195207;28;20726;-62
2022/01/20 04:23:20;;;;;;;28.30;10.68;;;;;;;;;;6190776;28;20054;-64
2022/01/20 04:26:22;;;;;;;24.05;10.13;;;;;;;;;;6182314;28;20058;-63
2022/01/20 04:29:22;;;;;;;27.88;11.45;;;;;;;;;;6184941;28;20054;-63
2022/01/20 04:32:24;;;;;;;28.58;10.73;;;;;;;;;;6179952;28;20117;-63
2022/01/20 04:35:24;;;;;;;24.13;10.43;;;;;;;;;;6183872;28;20521;-63
2022/01/20 04:38:26;;;;;;;27.38;10.25;;;;;;;;;;6181262;28;20169;-63
2022/01/20 04:41:31;;;;;;;27.80;11.05;;;;;;;;;;6177240;28;20046;-63
2022/01/20 04:44:42;;;;;;;22.30;9.50;;;;;;;;;;6179017;28;20043;-63
2022/01/20 04:57:24;;;;;;;26.90;10.93;;;;;;;;;;6182634;28;20437;-63
2022/01/20 05:00:25;;;;;;;29.08;13.10;;;;;;;;;;6183131;28;20061;-63
2022/01/20 05:03:26;;;;;;;25.50;9.90;;;;;;;;;;6189305;28;20627;-63
2022/01/20 05:06:26;;;;;;;22.30;9.90;;;;;;;;;;6188455;28;20134;-57
2022/01/20 05:09:27;;;;;;;30.42;13.07;;;;;;;;;;6188887;28;20121;-62
2022/01/20 05:12:40;;;;;;;27.92;11.30;;;;;;;;;;6185317;28;20074;-60
2022/01/20 05:15:40;;;;;;;24.13;10.90;;;;;;;;;;6186454;28;20607;-62
2022/01/20 05:18:41;;;;;;;25.85;10.82;;;;;;;;;;6177801;28;20043;-60
2022/01/20 05:21:42;;;;;;;26.45;11.02;;;;;;;;;;6182428;28;20170;-62
2022/01/20 05:24:43;;;;;;;25.63;9.82;;;;;;;;;;6179339;28;20132;-62
2022/01/20 05:27:43;;;;;;;24.05;10.73;;;;;;;;;;6177440;28;20129;-60
2022/01/20 05:30:44;;;;;;;22.58;9.80;;;;;;;;;;6183480;28;20061;-62
2022/01/20 05:33:44;;;;;;;25.67;10.23;;;;;;;;;;6180251;28;20141;-61
2022/01/20 05:36:47;;;;;;;25.55;10.68;;;;;;;;;;6184686;28;20142;-61
2022/01/20 05:39:48;;;;;;;35.10;13.98;;;;;;;;;;6199225;28;20410;-62
2022/01/20 05:42:49;;;;;;;25.40;9.73;;;;;;;;;;6183086;28;20046;-58
2022/01/20 05:45:51;;;;;;;27.67;10.27;;;;;;;;;;6185545;28;20038;-63
2022/01/20 05:48:56;;;;;;;27.48;12.73;;;;;;;;;;6182674;28;20046;-62
2022/01/20 05:51:56;;;;;;;32.38;16.27;;;;;;;;;;6187433;28;20452;-59
2022/01/20 05:54:58;;;;;;;25.92;11.68;;;;;;;;;;6181167;28;20038;-60
2022/01/20 05:57:59;;;;;;;26.15;10.43;;;;;;;;;;6179500;28;20133;-62
2022/01/20 06:01:00;;;;;;;27.67;10.50;;;;;;;;;;6181086;28;20062;-58
2022/01/20 06:04:01;;;;;;;25.98;10.50;;;;;;;;;;6191173;28;20551;-63
2022/01/20 06:07:02;;;;;;;27.20;10.63;;;;;;;;;;6181232;28;20069;-64
2022/01/20 06:10:03;;;;;;;28.17;11.00;;;;;;;;;;6177792;28;20130;-62
2022/01/20 06:13:04;;;;;;;28.27;11.88;;;;;;;;;;6178902;28;20046;-63
2022/01/20 06:16:05;;;;;;;24.08;10.02;;;;;;;;;;6180814;28;20108;-60
2022/01/20 06:19:06;;;;;;;24.90;11.68;;;;;;;;;;6177887;28;20057;-62
2022/01/20 06:22:09;;;;;;;36.20;15.77;;;;;;;;;;6182246;28;20046;-62
2022/01/20 06:25:10;;;;;;;30.75;12.82;;;;;;;;;;6182957;28;20090;-59
2022/01/20 06:28:12;;;;;;;31.30;12.57;;;;;;;;;;6180599;28;20834;-60
2022/01/20 06:31:13;;;;;;;24.30;10.43;;;;;;;;;;6193362;28;20053;-60
2022/01/20 06:34:13;;;;;;;28.40;11.10;;;;;;;;;;6181810;28;20134;-58
2022/01/20 06:37:14;;;;;;;27.98;11.00;;;;;;;;;;6181942;28;20104;-63
2022/01/20 06:40:15;;;;;;;30.98;12.63;;;;;;;;;;6180075;28;20311;-58
2022/01/20 06:43:16;;;;;;;31.58;11.43;;;;;;;;;;6181978;28;20050;-59
2022/01/20 06:46:17;;;;;;;36.53;15.32;;;;;;;;;;6183273;28;20497;-61
2022/01/20 06:49:18;;;;;;;29.92;12.25;;;;;;;;;;6182610;28;20058;-63
2022/01/20 06:52:18;;;;;;;28.10;11.65;;;;;;;;;;6186560;28;20530;-58
2022/01/20 06:55:20;;;;;;;27.77;11.85;;;;;;;;;;6184480;28;20077;-58
2022/01/20 06:58:23;;;;;;;32.73;12.83;;;;;;;;;;6190990;28;20054;-60
2022/01/20 07:01:23;;;;;;;29.67;12.65;;;;;;;;;;6193964;28;20066;-58
2022/01/20 07:04:27;;;;;;;29.90;12.10;;;;;;;;;;6192449;28;20057;-58
2022/01/20 07:07:27;;;;;;;29.45;12.68;;;;;;;;;;6187759;28;20082;-61
2022/01/20 07:10:28;;;;;;;33.80;12.77;;;;;;;;;;6195502;28;20060;-62
2022/01/20 07:13:29;;;;;;;34.60;13.75;;;;;;;;;;6194559;28;20042;-60
2022/01/20 07:16:30;;;;;;;30.02;13.55;;;;;;;;;;6193128;28;20571;-62
2022/01/20 07:19:32;;;;;;;35.78;13.68;;;;;;;;;;6194115;28;20062;-61
2022/01/20 07:22:33;;;;;;;27.00;11.23;;;;;;;;;;6194648;28;20072;-58
2022/01/20 07:25:33;;;;;;;29.83;11.80;;;;;;;;;;6190955;28;20038;-61
2022/01/20 07:28:34;;;;;;;36.55;13.75;;;;;;;;;;6191935;28;20043;-61
2022/01/20 07:31:35;;;;;;;30.38;12.35;;;;;;;;;;6185067;28;20050;-58
2022/01/20 07:34:35;;;;;;;28.25;11.75;;;;;;;;;;6179007;28;20219;-57
2022/01/20 07:37:36;;;;;;;25.80;11.05;;;;;;;;;;6182159;28;20533;-56
2022/01/20 07:40:37;;;;;;;20.52;9.52;;;;;;;;;;6176483;28;20061;-62
2022/01/20 07:43:39;;;;;;;28.23;11.20;;;;;;;;;;6184855;28;20090;-60
2022/01/20 07:46:40;;;;;;;26.90;10.40;;;;;;;;;;6185158;28;20173;-63
2022/01/20 07:49:41;;;;;;;25.58;10.02;;;;;;;;;;6177323;28;20050;-61
2022/01/20 07:52:42;;;;;;;28.50;10.57;;;;;;;;;;6183593;28;20125;-61
2022/01/20 07:55:43;;;;;;;21.90;10.88;;;;;;;;;;6182983;28;20042;-61
2022/01/20 07:58:44;;;;;;;24.48;11.43;;;;;;;;;;6181975;28;20140;-61
2022/01/20 08:01:45;;;;;;;19.90;8.95;;;;;;;;;;6184911;28;20046;-63
2022/01/20 08:04:45;;;;;;;23.40;10.27;;;;;;;;;;6182318;28;20133;-61
2022/01/20 08:07:46;;;;;;;27.88;10.32;;;;;;;;;;6180869;28;20046;-62
2022/01/20 08:10:47;;;;;;;23.00;11.02;;;;;;;;;;6181941;28;20093;-62
2022/01/20 08:13:48;;;;;;;25.77;9.93;;;;;;;;;;6185258;28;20464;-62
2022/01/20 08:16:48;;;;;;;25.92;10.73;;;;;;;;;;6184810;28;20129;-63
2022/01/20 08:19:49;;;;;;;28.15;11.20;;;;;;;;;;6181745;28;20483;-60
2022/01/20 08:22:50;;;;;;;32.03;12.05;;;;;;;;;;6184118;28;20050;-62
2022/01/20 08:25:50;;;;;;;25.98;10.63;;;;;;;;;;6188235;28;20418;-60
2022/01/20 08:28:51;;;;;;;24.67;9.65;;;;;;;;;;6191977;28;20054;-58
2022/01/20 08:31:52;;;;;;;22.33;9.40;;;;;;;;;;6190658;28;20449;-61
2022/01/20 08:34:52;;;;;;;32.67;10.98;;;;;;;;;;6194555;28;20082;-63
2022/01/20 08:37:53;;;;;;;27.17;10.40;;;;;;;;;;6191965;28;20046;-59
2022/01/20 08:40:54;;;;;;;28.88;10.90;;;;;;;;;;6194627;28;20133;-60
2022/01/20 08:43:54;;;;;;;23.45;9.80;;;;;;;;;;6184082;28;20061;-58
2022/01/20 08:46:57;;;;;;;38.10;13.52;;;;;;;;;;6179187;28;20875;-61
2022/01/20 08:49:59;;;;;;;37.42;12.68;;;;;;;;;;6185739;28;20069;-59
2022/01/20 08:52:59;;;;;;;34.80;13.38;;;;;;;;;;6191681;28;20461;-59
2022/01/20 08:56:01;;;;;;;39.10;17.88;;;;;;;;;;6191651;28;20050;-61
2022/01/20 08:59:05;;;;;;;29.83;13.90;;;;;;;;;;6193308;28;20042;-58
2022/01/20 09:02:06;;;;;;;37.78;15.43;;;;;;;;;;6190415;28;20043;-58
2022/01/20 09:05:10;;;;;;;31.73;14.70;;;;;;;;;;6192359;28;20741;-61
2022/01/20 09:08:12;;;;;;;27.80;11.13;;;;;;;;;;6190201;28;20502;-62
2022/01/20 09:11:20;;;;;;;28.98;10.80;;;;;;;;;;6192350;28;20504;-64
2022/01/20 09:17:40;;;;;;;24.85;9.60;;;;;;;;;;6189699;28;20046;-60
2022/01/20 09:20:41;;;;;;;32.17;10.75;;;;;;;;;;6192771;28;20251;-60
2022/01/20 09:23:42;;;;;;;30.15;10.77;;;;;;;;;;6181274;28;20086;-61
2022/01/20 09:26:42;;;;;;;24.60;9.63;;;;;;;;;;6183393;28;20604;-60
2022/01/20 09:29:45;;;;;;;39.70;15.27;;;;;;;;;;6183373;28;20048;-61
2022/01/20 09:36:17;;;;;;;27.15;11.23;;;;;;;;;;6168447;28;20434;-62
2022/01/20 09:39:17;;;;;;;24.45;10.63;;;;;;;;;;6181974;28;20108;-61
2022/01/20 09:42:19;;;;;;;35.38;14.30;;;;;;;;;;6192137;28;20153;-60
2022/01/20 09:45:19;;;;;;;27.02;12.07;;;;;;;;;;6193199;28;20050;-61
2022/01/20 09:48:21;;;;;;;30.05;11.25;;;;;;;;;;6182239;28;20181;-63
2022/01/20 09:51:22;;;;;;;27.45;12.32;;;;;;;;;;6176832;28;20054;-62
2022/01/20 09:54:23;;;;;;;27.27;11.98;;;;;;;;;;6178797;28;20105;-61
2022/01/20 09:57:24;;;;;;;27.98;11.38;;;;;;;;;;6188917;28;20038;-63
2022/01/20 10:00:24;;;;;;;26.25;10.55;;;;;;;;;;6192734;28;20082;-62
2022/01/20 10:03:27;;;;;;;28.75;11.82;;;;;;;;;;6191243;28;20046;-62
2022/01/20 10:06:28;;;;;;;25.50;10.68;;;;;;;;;;6191652;28;20137;-62
2022/01/20 10:09:45;;;;;;;27.40;10.43;;;;;;;;;;6191879;28;20056;-60
2022/01/20 10:12:45;;;;;;;25.25;10.40;;;;;;;;;;6186855;28;20121;-62
2022/01/20 10:16:17;;;;;;;21.88;9.68;;;;;;;;;;6180833;28;20138;-61
2022/01/20 10:19:28;;;;;;;15.48;7.15;;;;;;;;;;6178906;28;20082;-60
2022/01/20 10:22:31;;;;;;;20.80;6.35;;;;;;;;;;6178663;28;20047;-62
2022/01/20 10:25:35;;;;;;;18.75;5.45;;;;;;;;;;6178347;28;20046;-60
2022/01/20 10:29:09;;;;;;;12.55;5.00;;;;;;;;;;6180954;28;20165;-61
2022/01/20 10:32:12;;;;;;;29.30;11.15;;;;;;;;;;6181607;28;20081;-60
2022/01/20 10:35:15;;;;;;;20.98;9.40;;;;;;;;;;6180974;28;20062;-62
2022/01/20 10:38:17;;;;;;;15.10;4.95;;;;;;;;;;6187829;28;20070;-61
2022/01/20 10:41:29;;;;;;;14.52;5.10;;;;;;;;;;6188920;28;20046;-62
2022/01/20 10:44:53;;;;;;;13.43;5.03;;;;;;;;;;6192255;28;20405;-63
2022/01/20 10:47:59;;;;;;;13.43;4.90;;;;;;;;;;6190611;28;20046;-63
2022/01/20 10:50:59;;;;;;;16.65;5.13;;;;;;;;;;6188556;28;20415;-62
2022/01/20 10:54:06;;;;;;;15.43;4.22;;;;;;;;;;6191896;28;20052;-63
2022/01/20 10:57:08;;;;;;;7.38;2.53;;;;;;;;;;6188752;28;20046;-60
2022/01/20 11:00:11;;;;;;;9.35;2.25;;;;;;;;;;6190116;28;20556;-63
2022/01/20 11:03:13;;;;;;;10.18;2.72;;;;;;;;;;6189062;28;20057;-61
2022/01/20 11:06:14;;;;;;;4.97;2.00;;;;;;;;;;6192204;28;20051;-62
2022/01/20 11:09:19;;;;;;;7.25;2.35;;;;;;;;;;6187807;28;20061;-62
2022/01/20 11:12:20;;;;;;;3.90;1.70;;;;;;;;;;6186821;28;20054;-61
2022/01/20 11:15:22;;;;;;;6.93;2.00;;;;;;;;;;6197658;28;20153;-62
2022/01/20 11:18:27;;;;;;;6.55;2.00;;;;;;;;;;6181197;28;20620;-62
2022/01/20 11:21:28;;;;;;;8.48;2.30;;;;;;;;;;6179262;28;20081;-62
2022/01/20 11:24:29;;;;;;;8.20;2.20;;;;;;;;;;6178455;28;20043;-60
2022/01/20 11:27:42;;;;;;;10.38;2.35;;;;;;;;;;6179125;28;20054;-62
2022/01/20 11:31:08;;;;;;;7.60;2.30;;;;;;;;;;6181031;28;20050;-62
2022/01/20 11:34:21;;;;;;;11.40;2.85;;;;;;;;;;6183255;28;20048;-62
2022/01/20 11:37:24;;;;;;;;;;;;;;;;;;6187345;28;20137;-62
2022/01/20 11:40:25;;;;;;;8.40;3.20;;;;;;;;;;6179403;28;19929;-60
2022/01/20 11:43:32;;;;;;;13.18;3.28;;;;;;;;;;6182610;28;20078;-61
2022/01/20 11:46:41;;;;;;;10.40;3.67;;;;;;;;;;6185199;28;20079;-61
2022/01/20 11:49:45;;;;;;;14.35;4.38;;;;;;;;;;6182161;28;20078;-60
2022/01/20 11:52:46;;;;;;;14.73;4.32;;;;;;;;;;6181936;28;20869;-60
2022/01/20 11:55:53;;;;;;;14.43;4.10;;;;;;;;;;6182312;28;20077;-60
2022/01/20 11:58:53;;;;;;;12.40;4.15;;;;;;;;;;6184335;28;20046;-60
2022/01/20 12:01:55;;;;;;;10.43;3.70;;;;;;;;;;6183679;28;20138;-62
2022/01/20 12:04:56;;;;;;;10.18;3.08;;;;;;;;;;6182708;28;20046;-63
2022/01/20 12:08:15;;;;;;;10.52;3.22;;;;;;;;;;6183038;28;20077;-63
2022/01/20 12:11:16;;;;;;;9.70;3.42;;;;;;;;;;6179798;28;20532;-60
2022/01/20 12:14:32;;;;;;;10.80;3.45;;;;;;;;;;6184499;28;20051;-61
2022/01/20 12:17:34;;;;;;;8.73;3.40;;;;;;;;;;6190128;28;20042;-62
2022/01/20 12:20:35;;;;;;;14.07;3.50;;;;;;;;;;6194668;28;20054;-61
2022/01/20 12:23:43;;;;;;;10.50;3.67;;;;;;;;;;6189828;28;20050;-62
2022/01/20 12:26:45;;;;;;;7.40;2.40;;;;;;;;;;6191204;28;20081;-61
2022/01/20 12:29:45;;;;;;;9.15;2.80;;;;;;;;;;6195486;28;20046;-60
2022/01/20 12:33:10;;;;;;;8.60;2.70;;;;;;;;;;6195078;28;20046;-62
2022/01/20 12:36:13;;;;;;;9.45;2.50;;;;;;;;;;6189723;28;20068;-61
2022/01/20 12:39:21;;;;;;;14.40;2.80;;;;;;;;;;6191405;28;20050;-60
2022/01/20 12:42:22;;;;;;;11.07;2.17;;;;;;;;;;6193829;28;20484;-61
2022/01/20 12:49:18;;;;;;;9.00;2.70;;;;;;;;;;6192360;28;20050;-62
2022/01/20 12:52:19;;;;;;;8.77;2.75;;;;;;;;;;6182957;28;20084;-62
2022/01/20 12:55:20;;;;;;;10.23;3.15;;;;;;;;;;6194767;28;20356;-62
2022/01/20 12:58:21;;;;;;;6.78;2.42;;;;;;;;;;6194097;28;20509;-62
2022/01/20 13:01:22;;;;;;;8.98;3.10;;;;;;;;;;6187309;28;20497;-62
2022/01/20 13:04:26;;;;;;;10.85;3.70;;;;;;;;;;6192201;28;20046;-61
2022/01/20 13:07:29;;;;;;;8.90;2.75;;;;;;;;;;6184404;28;20092;-61
2022/01/20 13:10:33;;;;;;;8.32;2.60;;;;;;;;;;6191967;28;20050;-62
2022/01/20 13:13:33;;;;;;;7.95;2.85;;;;;;;;;;6182039;28;20551;-59
2022/01/20 13:16:34;;;;;;;8.38;2.33;;;;;;;;;;6183300;28;20049;-61
2022/01/20 13:19:45;;;;;;;9.30;2.20;;;;;;;;;;6184760;28;20553;-59
2022/01/20 13:22:56;;;;;;;8.93;2.15;;;;;;;;;;6179954;28;20053;-61
2022/01/20 13:26:08;;;;;;;5.88;2.08;;;;;;;;;;6183419;28;20050;-59
2022/01/20 13:29:09;;;;;;;8.13;2.08;;;;;;;;;;6181280;28;20054;-62
2022/01/20 13:32:10;;;;;;;11.90;2.22;;;;;;;;;;6180718;28;20141;-63
2022/01/20 13:35:10;;;;;;;8.77;2.38;;;;;;;;;;6198110;28;20105;-60
2022/01/20 13:38:11;;;;;;;12.13;3.28;;;;;;;;;;6180438;28;20467;-61
2022/01/20 13:41:22;;;;;;;12.02;2.55;;;;;;;;;;6181489;28;20133;-62
2022/01/20 13:48:00;;;;;;;9.57;2.67;;;;;;;;;;6186746;28;20093;-62
2022/01/20 13:51:03;;;;;;;7.53;2.03;;;;;;;;;;6171203;28;20039;-59
2022/01/20 13:54:05;;;;;;;8.23;1.98;;;;;;;;;;6193273;28;20106;-61
2022/01/20 13:57:05;;;;;;;8.37;1.73;;;;;;;;;;6180108;28;20659;-60
2022/01/20 14:00:10;;;;;;;7.00;2.00;;;;;;;;;;6183961;28;20399;-59
2022/01/20 14:03:11;;;;;;;8.77;2.20;;;;;;;;;;6183188;28;20142;-61
2022/01/20 14:06:12;;;;;;;8.27;2.05;;;;;;;;;;6178246;28;20069;-59
2022/01/20 14:09:12;;;;;;;6.10;2.25;;;;;;;;;;6183892;28;20056;-62
2022/01/20 14:12:14;;;;;;;6.18;1.75;;;;;;;;;;6184244;28;20145;-62
2022/01/20 14:15:14;;;;;;;6.13;1.88;;;;;;;;;;6183041;28;20061;-62
2022/01/20 14:18:20;;;;;;;4.00;1.70;;;;;;;;;;6182656;28;20054;-61
2022/01/20 14:21:20;;;;;;;7.15;1.70;;;;;;;;;;6181246;28;20176;-62
2022/01/20 14:24:21;;;;;;;6.07;1.80;;;;;;;;;;6183614;28;20054;-62
2022/01/20 14:27:21;;;;;;;7.43;2.17;;;;;;;;;;6182156;28;20051;-59
2022/01/20 14:30:24;;;;;;;5.75;2.33;;;;;;;;;;6183503;28;20466;-59
2022/01/20 14:33:25;;;;;;;6.57;1.92;;;;;;;;;;6182214;28;20038;-61
2022/01/20 14:36:26;;;;;;;9.25;2.20;;;;;;;;;;6177300;28;20043;-59
2022/01/20 14:39:26;;;;;;;9.05;2.70;;;;;;;;;;6182084;28;20145;-62
2022/01/20 14:42:27;;;;;;;8.88;2.30;;;;;;;;;;6182406;28;20050;-62
2022/01/20 14:45:28;;;;;;;13.10;3.28;;;;;;;;;;6182876;28;20050;-61
2022/01/20 14:48:31;;;;;;;9.98;2.88;;;;;;;;;;6183894;28;20057;-60
2022/01/20 14:51:32;;;;;;;18.05;3.40;;;;;;;;;;6183195;28;20109;-59
2022/01/20 14:54:33;;;;;;;8.40;2.45;;;;;;;;;;6183091;28;20509;-62
2022/01/20 14:57:34;;;;;;;9.27;2.63;;;;;;;;;;6184464;28;20059;-61
2022/01/20 15:00:37;;;;;;;7.75;2.58;;;;;;;;;;6187759;28;20065;-61
2022/01/20 15:03:37;;;;;;;10.32;2.67;;;;;;;;;;6191829;28;20042;-60
2022/01/20 15:06:39;;;;;;;7.63;2.72;;;;;;;;;;6195066;28;20052;-61
2022/01/20 15:09:40;;;;;;;13.35;3.55;;;;;;;;;;6191803;28;20141;-59
2022/01/20 15:12:42;;;;;;;9.48;2.92;;;;;;;;;;6197062;28;20069;-61
2022/01/20 15:15:42;;;;;;;11.20;2.97;;;;;;;;;;6196858;28;20050;-63
2022/01/20 15:18:43;;;;;;;10.90;2.85;;;;;;;;;;6193958;28;20393;-62
2022/01/20 15:21:44;;;;;;;12.98;2.90;;;;;;;;;;6197324;28;20125;-61
2022/01/20 15:24:45;;;;;;;14.43;3.08;;;;;;;;;;6193927;28;20058;-62
2022/01/20 15:27:46;;;;;;;13.10;3.55;;;;;;;;;;6183144;28;20137;-63
2022/01/20 15:30:46;;;;;;;9.02;2.90;;;;;;;;;;6190529;28;20054;-62
2022/01/20 15:33:47;;;;;;;11.77;3.33;;;;;;;;;;6184704;28;20133;-63
2022/01/20 15:36:48;;;;;;;12.93;3.30;;;;;;;;;;6184155;28;20549;-63
2022/01/20 15:39:49;;;;;;;18.25;3.83;;;;;;;;;;6186509;28;20221;-62
2022/01/20 15:42:50;;;;;;;13.52;3.50;;;;;;;;;;6188375;28;20094;-62
2022/01/20 15:45:50;;;;;;;12.77;3.38;;;;;;;;;;6185521;28;20054;-61
2022/01/20 15:48:51;;;;;;;9.85;3.17;;;;;;;;;;6187352;28;20526;-60
2022/01/20 15:51:52;;;;;;;10.30;3.13;;;;;;;;;;6190124;28;20049;-63
2022/01/20 15:54:52;;;;;;;16.83;4.25;;;;;;;;;;6189744;28;20053;-64
2022/01/20 15:57:53;;;;;;;15.40;3.88;;;;;;;;;;6189209;28;20089;-63
2022/01/20 16:00:54;;;;;;;16.60;4.25;;;;;;;;;;6187841;28;20057;-63
2022/01/20 16:03:54;;;;;;;16.13;3.67;;;;;;;;;;6186971;28;20050;-63
2022/01/20 16:06:55;;;;;;;18.73;3.80;;;;;;;;;;6185815;28;20050;-67
2022/01/20 16:09:57;;;;;;;18.58;4.45;;;;;;;;;;6196102;28;20156;-59
2022/01/20 16:12:57;;;;;;;14.00;4.07;;;;;;;;;;6198720;28;20062;-62
2022/01/20 16:16:00;;;;;;;17.50;5.15;;;;;;;;;;6200526;28;20639;-61
2022/01/20 16:19:02;;;;;;;21.20;4.82;;;;;;;;;;6203839;28;20420;-60
2022/01/20 16:22:03;;;;;;;13.25;3.83;;;;;;;;;;6200290;28;20108;-59
2022/01/20 16:25:06;;;;;;;22.25;4.43;;;;;;;;;;6194766;28;20034;-61
2022/01/20 16:28:08;;;;;;;19.23;4.60;;;;;;;;;;6199356;28;20050;-62
2022/01/20 16:31:09;;;;;;;;;;;;;;;;;;6187518;28;20086;-63
2022/01/20 16:34:10;;;;;;;16.90;5.00;;;;;;;;;;6192093;28;20407;-65
2022/01/20 16:37:11;;;;;;;17.05;4.32;;;;;;;;;;6196132;28;20520;-63
2022/01/20 16:40:12;;;;;;;14.23;4.85;;;;;;;;;;6196503;28;20046;-63
2022/01/20 16:43:13;;;;;;;15.82;4.13;;;;;;;;;;6191184;28;20069;-62
2022/01/20 16:46:13;;;;;;;13.52;4.70;;;;;;;;;;6190113;28;20064;-62
2022/01/20 16:49:15;;;;;;;10.27;3.70;;;;;;;;;;6193012;28;20490;-61
2022/01/20 16:52:16;;;;;;;15.70;4.15;;;;;;;;;;6189976;28;20080;-62
2022/01/20 16:55:17;;;;;;;12.07;4.07;;;;;;;;;;6184270;28;20050;-61
2022/01/20 16:58:18;;;;;;;16.27;4.53;;;;;;;;;;6191463;28;20050;-63
2022/01/20 17:01:19;;;;;;;21.40;4.70;;;;;;;;;;6190608;28;20077;-60
2022/01/20 17:04:20;;;;;;;16.10;5.07;;;;;;;;;;6187882;28;20050;-61
2022/01/20 17:07:22;;;;;;;17.65;5.18;;;;;;;;;;6191590;28;20487;-64
2022/01/20 17:10:23;;;;;;;19.70;5.23;;;;;;;;;;6192064;28;20065;-60
2022/01/20 17:13:25;;;;;;;19.70;4.22;;;;;;;;;;6190793;28;20058;-60
2022/01/20 17:16:25;;;;;;;15.50;5.72;;;;;;;;;;6192646;28;20818;-61
2022/01/20 17:19:26;;;;;;;13.48;4.63;;;;;;;;;;6191566;28;20054;-60
2022/01/20 17:22:27;;;;;;;19.35;6.10;;;;;;;;;;6196266;28;20064;-62
2022/01/20 17:25:27;;;;;;;21.80;6.07;;;;;;;;;;6188807;28;20068;-62
2022/01/20 17:28:28;;;;;;;18.60;5.00;;;;;;;;;;6198640;28;20127;-62
2022/01/20 17:31:29;;;;;;;15.07;4.75;;;;;;;;;;6194045;28;20077;-62
2022/01/20 17:34:30;;;;;;;16.58;4.93;;;;;;;;;;6196337;28;20047;-62
2022/01/20 17:37:30;;;;;;;15.38;4.60;;;;;;;;;;6199883;28;20405;-64
2022/01/20 17:40:32;;;;;;;17.88;4.15;;;;;;;;;;6196798;28;20051;-60
2022/01/20 17:43:33;;;;;;;16.17;4.95;;;;;;;;;;6185373;28;20363;-62
2022/01/20 17:46:34;;;;;;;11.45;4.30;;;;;;;;;;6176878;28;20062;-63
2022/01/20 17:49:34;;;;;;;18.05;4.72;;;;;;;;;;6176249;28;20064;-62
2022/01/20 17:52:39;;;;;;;19.08;4.70;;;;;;;;;;6180790;28;20046;-63
2022/01/20 17:55:39;;;;;;;19.45;5.45;;;;;;;;;;6165865;28;20520;-62
2022/01/20 17:58:40;;;;;;;13.98;5.63;;;;;;;;;;6175190;28;20058;-62
2022/01/20 18:01:41;;;;;;;11.40;3.83;;;;;;;;;;6178397;28;20051;-62
2022/01/20 18:04:42;;;;;;;19.75;5.82;;;;;;;;;;6173445;28;20050;-63
2022/01/20 18:07:43;;;;;;;14.73;4.82;;;;;;;;;;6172578;28;20046;-64
2022/01/20 18:10:43;;;;;;;18.23;4.90;;;;;;;;;;6177142;28;20065;-63
2022/01/20 18:13:44;;;;;;;17.63;5.10;;;;;;;;;;6174652;28;20042;-62
2022/01/20 18:16:45;;;;;;;17.88;4.88;;;;;;;;;;6171315;28;20421;-61
2022/01/20 18:19:45;;;;;;;21.85;4.97;;;;;;;;;;6172900;28;20165;-59
2022/01/20 18:22:46;;;;;;;17.35;4.90;;;;;;;;;;6181566;28;20058;-60
2022/01/20 18:25:48;;;;;;;17.10;5.27;;;;;;;;;;6170301;28;20046;-63
2022/01/20 18:28:50;;;;;;;17.77;5.40;;;;;;;;;;6176284;28;20054;-61
2022/01/20 18:31:51;;;;;;;20.30;5.63;;;;;;;;;;6176408;28;20054;-63
2022/01/20 18:34:53;;;;;;;26.70;6.32;;;;;;;;;;6177526;28;20535;-63
2022/01/20 18:37:55;;;;;;;19.98;5.00;;;;;;;;;;6174862;28;20050;-60
2022/01/20 18:40:56;;;;;;;;;;;;;;;;;;6184318;28;20509;-62
2022/01/20 18:43:58;;;;;;;16.20;5.05;;;;;;;;;;6184498;28;19930;-63
2022/01/20 18:46:58;;;;;;;21.60;5.37;;;;;;;;;;6183734;28;20576;-62
2022/01/20 18:49:59;;;;;;;16.52;5.88;;;;;;;;;;6184430;28;20054;-60
2022/01/20 18:53:00;;;;;;;18.88;5.43;;;;;;;;;;6192181;28;20049;-62
2022/01/20 18:56:04;;;;;;;27.88;6.68;;;;;;;;;;6187402;28;20982;-62
2022/01/20 18:59:04;;;;;;;22.17;4.75;;;;;;;;;;6196117;28;20073;-61
2022/01/20 19:02:07;;;;;;;21.83;5.47;;;;;;;;;;6182875;28;20133;-61
2022/01/20 19:05:09;;;;;;;23.52;5.80;;;;;;;;;;6177107;28;20119;-60
2022/01/20 19:08:10;;;;;;;11.40;3.78;;;;;;;;;;6176084;28;20149;-62
2022/01/20 19:11:12;;;;;;;16.15;3.55;;;;;;;;;;6177835;28;20054;-64
2022/01/20 19:14:14;;;;;;;19.60;5.28;;;;;;;;;;6183318;28;20071;-63